createdAt,value
2022-11-04T00:00:13.457Z,14.50
2022-11-04T00:02:58.783Z,13.60
2022-11-04T00:06:01.261Z,18.50
2022-11-04T00:08:28.965Z,15.60
2022-11-04T00:11:16.856Z,14.30
2022-11-04T00:13:44.764Z,14.40
2022-11-04T00:16:32.517Z,15.60
2022-11-04T00:19:01.410Z,13.20
2022-11-04T00:21:48.474Z,12.60
2022-11-04T00:24:34.942Z,13.30
2022-11-04T00:27:21.703Z,13.80
2022-11-04T00:29:49.367Z,14.10
2022-11-04T00:32:35.681Z,14.90
2022-11-04T00:35:03.462Z,15.20
2022-11-04T00:37:31.158Z,14.50
2022-11-04T00:39:58.846Z,14.00
2022-11-04T00:42:26.567Z,14.50
2022-11-04T00:44:54.176Z,16.20
2022-11-04T00:47:21.828Z,14.60
2022-11-04T00:49:49.473Z,14.00
2022-11-04T00:52:17.732Z,14.10
2022-11-04T00:54:45.421Z,12.80
2022-11-04T00:57:14.133Z,14.10
2022-11-04T00:59:42.267Z,13.10
2022-11-04T01:02:10.669Z,12.80
2022-11-04T01:04:38.684Z,14.60
2022-11-04T01:07:06.768Z,12.80
2022-11-04T01:09:34.760Z,12.50
2022-11-04T01:12:02.497Z,13.30
2022-11-04T01:14:30.532Z,12.40
2022-11-04T01:16:58.292Z,11.90
2022-11-04T01:19:26.019Z,10.80
2022-11-04T01:21:53.719Z,11.40
2022-11-04T01:24:21.508Z,11.30
2022-11-04T01:26:49.186Z,10.60
2022-11-04T01:29:16.984Z,10.60
2022-11-04T01:31:44.719Z,10.20
2022-11-04T01:34:12.683Z,10.50
2022-11-04T01:36:40.367Z,10.60
2022-11-04T01:39:08.000Z,10.70
2022-11-04T01:41:35.744Z,12.20
2022-11-04T01:44:25.270Z,9.70
2022-11-04T01:46:54.319Z,10.20
2022-11-04T01:49:35.806Z,10.30
2022-11-04T01:52:13.643Z,10.10
2022-11-04T01:54:44.757Z,10.80
2022-11-04T01:57:17.999Z,9.50
2022-11-04T01:59:47.029Z,10.10
2022-11-04T02:02:14.825Z,10.80
2022-11-04T02:04:44.068Z,9.90
2022-11-04T02:07:12.277Z,9.20
2022-11-04T02:09:41.407Z,9.00
2022-11-04T02:12:27.969Z,9.80
2022-11-04T02:14:55.942Z,11.70
2022-11-04T02:17:34.004Z,9.10
2022-11-04T02:20:30.987Z,8.20
2022-11-04T02:23:36.737Z,9.50
2022-11-04T02:26:22.517Z,8.80
2022-11-04T02:29:07.709Z,9.60
2022-11-04T02:32:06.500Z,9.90
2022-11-04T02:34:43.401Z,9.80
2022-11-04T02:37:29.253Z,9.40
2022-11-04T02:40:17.983Z,9.30
2022-11-04T02:42:51.768Z,8.90
2022-11-04T02:45:25.916Z,9.00
2022-11-04T02:48:06.252Z,8.80
2022-11-04T02:50:56.441Z,9.90
2022-11-04T02:53:33.494Z,8.90
2022-11-04T02:56:04.140Z,9.50
2022-11-04T02:58:47.707Z,8.70
2022-11-04T03:01:19.050Z,9.20
2022-11-04T03:06:21.787Z,8.50
2022-11-04T03:08:52.398Z,8.00
2022-11-04T03:11:23.811Z,8.30
2022-11-04T03:16:40.545Z,7.50
2022-11-04T03:19:26.723Z,7.70
2022-11-04T03:22:00.807Z,7.10
2022-11-04T03:24:30.041Z,9.10
2022-11-04T03:27:03.039Z,8.80
2022-11-04T03:29:37.633Z,8.60
2022-11-04T03:32:39.217Z,8.10
2022-11-04T03:35:07.901Z,7.90
2022-11-04T03:37:35.692Z,8.10
2022-11-04T03:40:04.352Z,6.80
2022-11-04T03:42:37.440Z,8.50
2022-11-04T03:45:05.716Z,7.60
2022-11-04T03:47:33.718Z,7.90
2022-11-04T03:50:09.437Z,7.50
2022-11-04T03:52:37.575Z,6.60
2022-11-04T03:55:07.696Z,7.70
2022-11-04T03:57:49.480Z,6.70
2022-11-04T04:00:20.501Z,7.40
2022-11-04T04:02:59.693Z,6.70
2022-11-04T04:05:33.387Z,7.00
2022-11-04T04:08:38.221Z,7.30
2022-11-04T04:11:35.657Z,7.30
2022-11-04T04:14:35.713Z,7.30
2022-11-04T04:17:15.925Z,6.50
2022-11-04T04:19:51.205Z,7.30
2022-11-04T04:22:24.170Z,6.50
2022-11-04T04:25:14.091Z,7.70
2022-11-04T04:27:42.863Z,7.30
2022-11-04T04:30:16.543Z,7.10
2022-11-04T04:32:48.728Z,7.50
2022-11-04T04:35:36.449Z,8.60
2022-11-04T04:38:25.661Z,6.90
2022-11-04T04:41:27.017Z,6.60
2022-11-04T04:44:13.893Z,6.60
2022-11-04T04:46:44.339Z,7.30
2022-11-04T04:49:12.053Z,7.80
2022-11-04T04:51:45.036Z,6.80
2022-11-04T04:54:12.808Z,6.60
2022-11-04T04:56:40.749Z,7.20
2022-11-04T04:59:08.507Z,8.80
2022-11-04T05:01:36.245Z,7.20
2022-11-04T05:04:04.184Z,6.90
2022-11-04T05:06:31.827Z,8.20
2022-11-04T05:08:59.496Z,6.70
2022-11-04T05:11:27.518Z,7.80
2022-11-04T05:13:55.556Z,7.50
2022-11-04T05:16:23.291Z,6.90
2022-11-04T05:18:53.842Z,6.70
2022-11-04T05:21:21.515Z,7.30
2022-11-04T05:23:49.291Z,7.60
2022-11-04T05:26:17.643Z,5.80
2022-11-04T05:28:45.424Z,6.30
2022-11-04T05:31:13.273Z,7.80
2022-11-04T05:33:41.208Z,7.60
2022-11-04T05:36:14.818Z,7.10
2022-11-04T05:38:43.509Z,7.30
2022-11-04T05:41:25.864Z,6.40
2022-11-04T05:43:55.739Z,6.90
2022-11-04T05:46:24.085Z,7.30
2022-11-04T05:48:52.189Z,7.60
2022-11-04T05:51:22.447Z,7.70
2022-11-04T05:53:50.647Z,6.80
2022-11-04T05:56:18.936Z,7.30
2022-11-04T05:58:46.743Z,6.50
2022-11-04T06:01:33.857Z,6.50
2022-11-04T06:04:03.847Z,6.50
2022-11-04T06:06:34.393Z,6.60
2022-11-04T06:09:03.131Z,6.90
2022-11-04T06:11:31.712Z,6.40
2022-11-04T06:13:59.863Z,6.50
2022-11-04T06:16:28.054Z,6.50
2022-11-04T06:18:59.957Z,5.80
2022-11-04T06:21:33.085Z,8.00
2022-11-04T06:24:00.831Z,6.90
2022-11-04T06:26:30.939Z,6.60
2022-11-04T06:28:58.762Z,6.10
2022-11-04T06:31:26.488Z,6.90
2022-11-04T06:33:54.226Z,6.30
2022-11-04T06:36:21.909Z,7.70
2022-11-04T06:38:49.611Z,6.80
2022-11-04T06:41:17.839Z,6.50
2022-11-04T06:43:45.634Z,6.10
2022-11-04T06:46:36.985Z,7.30
2022-11-04T06:49:06.681Z,7.20
2022-11-04T06:51:34.425Z,6.60
2022-11-04T06:54:02.155Z,6.80
2022-11-04T06:56:29.907Z,6.10
2022-11-04T06:58:57.662Z,6.10
2022-11-04T07:01:28.922Z,6.00
2022-11-04T07:03:58.977Z,6.00
2022-11-04T07:06:28.749Z,7.10
2022-11-04T07:08:58.975Z,6.60
2022-11-04T07:11:29.399Z,6.40
2022-11-04T07:13:57.457Z,7.10
2022-11-04T07:16:25.170Z,7.00
2022-11-04T07:18:55.316Z,6.00
2022-11-04T07:21:23.756Z,6.10
2022-11-04T07:23:51.641Z,6.60
2022-11-04T07:26:19.853Z,6.70
2022-11-04T07:28:47.556Z,6.90
2022-11-04T07:31:17.078Z,7.30
2022-11-04T07:33:50.236Z,5.70
2022-11-04T07:36:18.978Z,6.60
2022-11-04T07:38:47.354Z,6.20
2022-11-04T07:41:18.107Z,6.30
2022-11-04T07:43:50.999Z,7.60
2022-11-04T07:46:20.452Z,6.00
2022-11-04T07:48:48.324Z,7.10
2022-11-04T07:51:20.639Z,6.40
2022-11-04T07:53:48.478Z,7.60
2022-11-04T07:56:16.754Z,7.00
2022-11-04T07:58:44.898Z,7.40
2022-11-04T08:01:16.585Z,7.00
2022-11-04T08:03:45.362Z,6.60
2022-11-04T08:06:14.947Z,6.30
2022-11-04T08:08:43.714Z,6.90
2022-11-04T08:11:17.774Z,7.20
2022-11-04T08:13:47.166Z,8.50
2022-11-04T08:16:18.375Z,7.10
2022-11-04T08:18:48.423Z,8.20
2022-11-04T08:21:17.136Z,7.60
2022-11-04T08:23:46.236Z,6.40
2022-11-04T08:26:19.318Z,6.80
2022-11-04T08:28:47.796Z,7.80
2022-11-04T08:31:24.330Z,7.60
2022-11-04T08:33:53.102Z,7.70
2022-11-04T08:36:27.829Z,6.50
2022-11-04T08:38:56.816Z,6.80
2022-11-04T08:41:28.167Z,7.80
2022-11-04T08:43:57.377Z,9.60
2022-11-04T08:46:25.114Z,10.00
2022-11-04T08:48:53.013Z,7.00
2022-11-04T08:51:24.357Z,7.20
2022-11-04T08:56:21.521Z,7.20
2022-11-04T08:58:50.425Z,7.60
2022-11-04T09:01:19.163Z,7.90
2022-11-04T09:03:47.485Z,6.80
2022-11-04T09:06:21.478Z,6.60
2022-11-04T09:08:49.900Z,7.30
2022-11-04T09:11:18.415Z,5.80
2022-11-04T09:13:46.390Z,8.60
2022-11-04T09:16:15.043Z,7.50
2022-11-04T09:18:43.136Z,8.30
2022-11-04T09:21:11.848Z,6.50
2022-11-04T09:23:39.634Z,7.10
2022-11-04T09:26:13.833Z,7.30
2022-11-04T09:28:42.528Z,6.90
2022-11-04T09:31:16.770Z,5.90
2022-11-04T09:33:45.266Z,6.90
2022-11-04T09:36:14.246Z,8.20
2022-11-04T09:38:43.207Z,7.60
2022-11-04T09:41:54.013Z,6.90
2022-11-04T09:45:06.967Z,7.30
2022-11-04T09:47:32.185Z,7.20
2022-11-04T09:50:02.133Z,6.20
2022-11-04T09:52:37.776Z,7.30
2022-11-04T09:55:29.436Z,7.60
2022-11-04T09:57:58.824Z,7.40
2022-11-04T10:00:32.195Z,7.30
2022-11-04T10:03:09.438Z,7.20
2022-11-04T10:08:47.392Z,8.00
2022-11-04T10:11:43.332Z,7.90
2022-11-04T10:14:37.289Z,7.30
2022-11-04T10:17:19.880Z,6.70
2022-11-04T10:20:19.908Z,7.70
2022-11-04T10:22:53.419Z,7.50
2022-11-04T10:25:44.160Z,7.80
2022-11-04T10:28:17.797Z,7.10
2022-11-04T10:30:49.842Z,6.70
2022-11-04T10:33:34.789Z,7.20
2022-11-04T10:36:08.190Z,7.30
2022-11-04T10:38:39.445Z,7.30
2022-11-04T10:43:46.552Z,7.30
2022-11-04T10:46:39.083Z,7.20
2022-11-04T10:49:12.648Z,7.90
2022-11-04T10:51:40.459Z,6.90
2022-11-04T10:54:10.072Z,7.00
2022-11-04T10:56:43.709Z,9.30
2022-11-04T10:59:51.769Z,7.70
2022-11-04T11:02:39.474Z,6.60
2022-11-04T11:05:19.214Z,7.30
2022-11-04T11:07:53.507Z,7.20
2022-11-04T11:10:31.391Z,7.30
2022-11-04T11:13:02.504Z,8.00
2022-11-04T11:15:30.883Z,8.00
2022-11-04T11:18:07.617Z,7.10
2022-11-04T11:20:38.153Z,7.00
2022-11-04T11:23:10.131Z,7.20
2022-11-04T11:25:50.097Z,6.90
2022-11-04T11:28:24.939Z,7.10
2022-11-04T11:30:59.145Z,6.70
2022-11-04T11:33:30.643Z,7.10
2022-11-04T11:36:02.968Z,7.10
2022-11-04T11:38:34.291Z,6.70
2022-11-04T11:41:24.996Z,7.50
2022-11-04T11:43:55.963Z,6.10
2022-11-04T11:46:25.840Z,8.30
2022-11-04T11:49:01.103Z,6.80
2022-11-04T11:51:35.026Z,9.10
2022-11-04T11:54:13.440Z,7.50
2022-11-04T11:57:11.897Z,6.90
2022-11-04T12:02:54.996Z,5.90
2022-11-04T12:11:42.670Z,9.00
2022-11-04T12:14:18.526Z,6.70
2022-11-04T12:17:08.385Z,7.20
2022-11-04T12:20:10.274Z,5.60
2022-11-04T12:23:11.314Z,6.90
2022-11-04T12:25:39.605Z,7.10
2022-11-04T12:28:16.886Z,7.20
2022-11-04T12:31:03.302Z,7.50
2022-11-04T12:34:03.665Z,7.70
2022-11-04T12:36:51.933Z,7.70
2022-11-04T12:39:33.237Z,6.90
2022-11-04T12:42:21.416Z,6.80
2022-11-04T12:45:02.530Z,6.40
2022-11-04T12:47:46.363Z,6.60
2022-11-04T12:50:50.243Z,7.70
2022-11-04T12:53:45.123Z,6.80
2022-11-04T12:56:17.733Z,7.90
2022-11-04T12:59:20.897Z,9.30
2022-11-04T13:01:55.395Z,7.80
2022-11-04T13:04:29.815Z,8.10
2022-11-04T13:07:10.227Z,8.50
2022-11-04T13:09:44.395Z,7.30
2022-11-04T13:12:17.719Z,7.90
2022-11-04T13:15:00.791Z,7.60
2022-11-04T13:17:33.801Z,7.50
2022-11-04T13:20:28.676Z,7.70
2022-11-04T13:23:03.469Z,6.90
2022-11-04T13:25:40.703Z,8.10
2022-11-04T13:28:13.835Z,7.20
2022-11-04T13:31:12.444Z,7.70
2022-11-04T13:33:59.017Z,7.10
2022-11-04T13:36:51.812Z,7.30
2022-11-04T13:39:33.208Z,8.10
2022-11-04T13:42:14.003Z,8.10
2022-11-04T13:44:48.987Z,6.90
2022-11-04T13:47:28.596Z,6.40
2022-11-04T13:49:56.364Z,6.80
2022-11-04T13:52:52.659Z,10.30
2022-11-04T13:55:21.652Z,16.20
2022-11-04T13:57:54.715Z,8.10
2022-11-04T14:00:24.158Z,7.20
2022-11-04T14:02:54.154Z,6.90
2022-11-04T14:05:28.272Z,6.60
2022-11-04T14:07:59.405Z,6.80
2022-11-04T14:10:50.388Z,7.40
2022-11-04T14:13:33.595Z,7.50
2022-11-04T14:16:17.594Z,7.70
2022-11-04T14:18:47.353Z,7.00
2022-11-04T14:21:17.995Z,5.70
2022-11-04T14:23:49.596Z,7.60
2022-11-04T14:26:24.728Z,7.20
2022-11-04T14:29:17.089Z,7.80
2022-11-04T14:31:50.388Z,7.00
2022-11-04T14:34:26.935Z,7.50
2022-11-04T14:37:21.651Z,7.20
2022-11-04T14:40:00.832Z,7.80
2022-11-04T14:42:45.973Z,6.40
2022-11-04T14:45:27.424Z,6.80
2022-11-04T14:48:15.706Z,7.40
2022-11-04T14:50:47.719Z,6.50
2022-11-04T14:53:38.144Z,7.80
2022-11-04T14:56:23.188Z,6.50
2022-11-04T14:59:05.503Z,7.00
2022-11-04T15:01:37.310Z,6.20
2022-11-04T15:04:15.061Z,7.90
2022-11-04T15:06:58.205Z,6.50
2022-11-04T15:09:31.034Z,7.30
2022-11-04T15:12:23.801Z,8.20
2022-11-04T15:14:52.432Z,7.90
2022-11-04T15:17:22.609Z,8.50
2022-11-04T15:19:59.574Z,6.80
2022-11-04T15:22:29.501Z,7.10
2022-11-04T15:25:03.353Z,7.70
2022-11-04T15:27:31.169Z,6.90
2022-11-04T15:30:02.942Z,6.20
2022-11-04T15:32:31.076Z,7.30
2022-11-04T15:34:59.624Z,6.90
2022-11-04T15:37:29.061Z,7.30
2022-11-04T15:39:58.252Z,6.90
2022-11-04T15:42:44.070Z,7.10
2022-11-04T15:45:50.574Z,7.40
2022-11-04T15:48:26.385Z,6.60
2022-11-04T15:51:23.085Z,6.80
2022-11-04T15:54:05.493Z,6.70
2022-11-04T15:56:44.455Z,7.30
2022-11-04T15:59:17.061Z,6.90
2022-11-04T16:01:50.590Z,6.90
2022-11-04T16:04:22.066Z,8.20
2022-11-04T16:07:03.567Z,7.50
2022-11-04T16:09:50.494Z,7.50
2022-11-04T16:12:26.982Z,8.00
2022-11-04T16:14:57.545Z,8.80
2022-11-04T16:17:26.718Z,7.50
2022-11-04T16:20:02.003Z,8.60
2022-11-04T16:22:37.268Z,8.90
2022-11-04T16:25:07.267Z,9.90
2022-11-04T16:27:36.375Z,8.10
2022-11-04T16:30:33.958Z,9.20
2022-11-04T16:33:10.794Z,8.40
2022-11-04T16:35:42.820Z,8.20
2022-11-04T16:38:10.614Z,8.90
2022-11-04T16:40:38.455Z,8.00
2022-11-04T16:43:06.164Z,8.50
2022-11-04T16:45:36.286Z,9.60
2022-11-04T16:48:04.662Z,8.90
2022-11-04T16:50:32.672Z,8.80
2022-11-04T16:53:03.255Z,9.50
2022-11-04T16:55:32.349Z,8.90
2022-11-04T16:58:07.359Z,7.30
2022-11-04T17:00:35.095Z,8.20
2022-11-04T17:03:21.800Z,9.10
2022-11-04T17:05:56.700Z,8.40
2022-11-04T17:08:26.119Z,9.50
2022-11-04T17:10:54.362Z,7.80
2022-11-04T17:13:22.787Z,9.60
2022-11-04T17:15:50.910Z,9.40
2022-11-04T17:18:19.038Z,8.90
2022-11-04T17:20:53.889Z,8.50
2022-11-04T17:23:22.302Z,9.90
2022-11-04T17:25:50.448Z,8.90
2022-11-04T17:28:18.360Z,9.00
2022-11-04T17:30:46.421Z,9.20
2022-11-04T17:33:15.747Z,10.00
2022-11-04T17:35:46.488Z,10.50
2022-11-04T17:38:15.848Z,9.70
2022-11-04T17:41:02.487Z,10.20
2022-11-04T17:43:48.971Z,9.50
2022-11-04T17:46:36.698Z,18.60
2022-11-04T17:49:04.635Z,12.80
2022-11-04T17:51:33.415Z,10.80
2022-11-04T17:54:01.414Z,8.90
2022-11-04T17:56:29.253Z,10.00
2022-11-04T17:59:00.816Z,10.70
2022-11-04T18:01:28.744Z,10.50
2022-11-04T18:03:58.198Z,12.60
2022-11-04T18:06:26.825Z,12.10
2022-11-04T18:08:56.228Z,10.00
2022-11-04T18:11:44.349Z,10.50
2022-11-04T18:14:16.953Z,10.60
2022-11-04T18:16:48.331Z,11.80
2022-11-04T18:19:20.678Z,9.80
2022-11-04T18:21:49.817Z,10.10
2022-11-04T18:24:19.327Z,10.20
2022-11-04T18:26:47.709Z,10.80
2022-11-04T18:29:16.077Z,11.70
2022-11-04T18:31:49.079Z,12.90
2022-11-04T18:34:19.566Z,11.50
2022-11-04T18:36:49.093Z,15.20
2022-11-04T18:39:19.036Z,21.20
2022-11-04T18:41:47.430Z,18.00
2022-11-04T18:44:19.943Z,15.10
2022-11-04T18:46:48.081Z,16.20
2022-11-04T18:49:17.378Z,12.70
2022-11-04T18:51:45.252Z,12.60
2022-11-04T18:54:13.485Z,13.00
2022-11-04T18:56:42.062Z,13.80
2022-11-04T18:59:12.838Z,13.60
2022-11-04T19:01:42.143Z,11.80
2022-11-04T19:04:10.123Z,13.80
2022-11-04T19:06:42.555Z,12.60
2022-11-04T19:09:40.629Z,13.30
2022-11-04T19:12:19.188Z,10.40
2022-11-04T19:14:46.855Z,17.10
2022-11-04T19:17:15.053Z,20.30
2022-11-04T19:19:42.930Z,13.60
2022-11-04T19:22:10.985Z,12.90
2022-11-04T19:24:39.161Z,20.10
2022-11-04T19:27:07.024Z,12.70
2022-11-04T19:29:34.720Z,15.20
2022-11-04T19:32:02.424Z,10.90
2022-11-04T19:34:30.225Z,13.80
2022-11-04T19:36:57.948Z,15.50
2022-11-04T19:39:25.801Z,15.40
2022-11-04T19:42:12.360Z,15.60
2022-11-04T19:44:40.276Z,19.10
2022-11-04T19:47:09.507Z,13.40
2022-11-04T19:49:37.250Z,13.90
2022-11-04T19:52:05.156Z,12.10
2022-11-04T19:54:32.971Z,11.50
2022-11-04T19:57:00.721Z,11.00
2022-11-04T19:59:28.562Z,12.50
2022-11-04T20:01:56.490Z,11.30
2022-11-04T20:04:25.432Z,17.90
2022-11-04T20:06:53.426Z,12.00
2022-11-04T20:09:22.647Z,12.20
2022-11-04T20:12:10.333Z,11.60
2022-11-04T20:14:38.043Z,11.10
2022-11-04T20:17:07.176Z,13.50
2022-11-04T20:19:35.408Z,10.60
2022-11-04T20:22:03.962Z,10.20
2022-11-04T20:24:32.082Z,12.40
2022-11-04T20:26:59.797Z,11.90
2022-11-04T20:29:27.464Z,12.50
2022-11-04T20:31:55.267Z,13.60
2022-11-04T20:34:23.014Z,10.40
2022-11-04T20:36:51.199Z,11.60
2022-11-04T20:39:20.171Z,14.20
2022-11-04T20:41:48.063Z,13.60
2022-11-04T20:44:16.287Z,12.80
2022-11-04T20:46:44.782Z,13.20
2022-11-04T20:49:12.976Z,12.80
2022-11-04T20:51:48.739Z,13.20
2022-11-04T20:54:20.884Z,14.50
2022-11-04T20:56:48.722Z,16.40
2022-11-04T20:59:18.375Z,12.90
2022-11-04T21:01:47.690Z,12.00
2022-11-04T21:04:21.514Z,12.50
2022-11-04T21:06:51.348Z,11.80
2022-11-04T21:09:21.556Z,11.80
2022-11-04T21:11:50.397Z,12.00
2022-11-04T21:14:19.847Z,12.50
2022-11-04T21:16:52.084Z,15.30
2022-11-04T21:19:21.956Z,13.90
2022-11-04T21:21:49.758Z,12.40
2022-11-04T21:24:17.777Z,12.80
2022-11-04T21:26:46.418Z,12.60
2022-11-04T21:29:17.386Z,10.90
2022-11-04T21:31:46.822Z,15.80
2022-11-04T21:34:14.895Z,12.00
2022-11-04T21:36:43.655Z,12.50
2022-11-04T21:39:13.119Z,13.70
2022-11-04T21:41:40.990Z,13.10
2022-11-04T21:44:12.451Z,12.20
2022-11-04T21:46:40.449Z,11.60
2022-11-04T21:49:11.446Z,21.30
2022-11-04T21:51:39.258Z,16.60
2022-11-04T21:54:07.524Z,16.00
2022-11-04T21:56:35.876Z,18.20
2022-11-04T21:59:05.064Z,16.00
2022-11-04T22:01:33.386Z,14.00
2022-11-04T22:04:02.564Z,12.10
2022-11-04T22:06:35.167Z,11.70
2022-11-04T22:09:06.337Z,13.30
2022-11-04T22:11:37.345Z,12.50
2022-11-04T22:19:07.435Z,12.50
2022-11-04T22:21:41.358Z,13.40
2022-11-04T22:24:14.790Z,11.30
2022-11-04T22:26:43.427Z,12.80
2022-11-04T22:29:11.335Z,12.50
2022-11-04T22:31:41.786Z,15.40
2022-11-04T22:34:10.215Z,13.70
2022-11-04T22:36:38.563Z,15.40
2022-11-04T22:39:08.337Z,13.40
2022-11-04T22:41:38.751Z,12.40
2022-11-04T22:44:06.639Z,12.10
2022-11-04T22:46:35.350Z,18.20
2022-11-04T22:49:03.289Z,13.40
2022-11-04T22:51:32.591Z,13.00
2022-11-04T22:54:07.599Z,13.10
2022-11-04T22:56:36.939Z,12.30
2022-11-04T22:59:05.057Z,14.10
2022-11-04T23:01:34.089Z,13.20
2022-11-04T23:04:03.109Z,11.20
2022-11-04T23:06:32.059Z,14.30
2022-11-04T23:09:02.064Z,13.20
2022-11-04T23:11:49.890Z,13.40
2022-11-04T23:14:40.872Z,11.90
2022-11-04T23:17:36.391Z,12.10
2022-11-04T23:20:10.632Z,13.10
2022-11-04T23:22:57.377Z,14.50
2022-11-04T23:25:26.250Z,13.80
2022-11-04T23:28:13.850Z,10.90
2022-11-04T23:30:47.026Z,13.40
2022-11-04T23:33:15.745Z,13.00
2022-11-04T23:36:05.760Z,16.40
2022-11-04T23:38:35.715Z,14.20
2022-11-04T23:41:25.765Z,15.60
2022-11-04T23:46:43.402Z,11.10
2022-11-04T23:49:30.825Z,12.20
2022-11-04T23:52:17.817Z,13.80
2022-11-04T23:55:04.410Z,15.20
2022-11-04T23:57:50.803Z,15.10
